Time;durP1;ratioP1;P1;durP2;ratioP2;P2;SDS_P1;SDS_P2;PMS_P1;PMS_P2;Temp;Humidity;BMP_temperature;BMP_pressure;BME280_temperature;BME280_humidity;BME280_pressure;Samples;Min_cycle;Max_cycle;Signal;HPM_P1;HPM_P2
2022/06/07 00:02:13;;;;;;;2.00;0.60;;;10.00;99.90;;;;;;5055584;28;20013;-74
2022/06/07 00:04:40;;;;;;;2.83;0.60;;;10.00;99.90;;;;;;5055347;28;20051;-82
2022/06/07 00:07:09;;;;;;;3.08;1.23;;;10.00;99.90;;;;;;5055403;28;20408;-83
2022/06/07 00:09:36;;;;;;;1.73;0.85;;;10.10;99.90;;;;;;5055309;28;20079;-82
2022/06/07 00:12:05;;;;;;;1.20;0.60;;;10.10;99.90;;;;;;5054420;28;20056;-83
2022/06/07 00:14:34;;;;;;;4.95;0.70;;;10.10;99.90;;;;;;5055228;28;20358;-83
2022/06/07 00:17:05;;;;;;;2.75;0.50;;;10.10;99.90;;;;;;5053930;28;20447;-83
2022/06/07 00:19:33;;;;;;;0.88;0.50;;;10.20;99.90;;;;;;5055555;28;20105;-82
2022/06/07 00:22:01;;;;;;;2.10;0.60;;;10.20;99.90;;;;;;5055410;28;20035;-82
2022/06/07 00:24:29;;;;;;;1.02;0.68;;;10.30;99.90;;;;;;5055135;28;20103;-77
2022/06/07 00:26:57;;;;;;;3.13;0.65;;;10.30;99.90;;;;;;5055183;28;20071;-82
2022/06/07 00:29:25;;;;;;;0.60;0.50;;;10.40;99.90;;;;;;5055030;28;20105;-83
2022/06/07 00:31:54;;;;;;;2.03;0.43;;;10.50;99.90;;;;;;5055104;28;20116;-83
2022/06/07 00:34:21;;;;;;;1.20;0.45;;;10.50;99.90;;;;;;5055002;28;20021;-83
2022/06/07 00:36:48;;;;;;;1.45;0.45;;;10.50;99.90;;;;;;5054565;28;20444;-84
2022/06/07 00:39:16;;;;;;;1.75;0.93;;;10.60;99.90;;;;;;5054851;28;20362;-83
2022/06/07 00:41:43;;;;;;;3.70;0.55;;;10.70;99.90;;;;;;5054795;28;20044;-83
2022/06/07 00:44:31;;;;;;;1.58;0.50;;;10.70;99.90;;;;;;5055139;28;20025;-76
2022/06/07 00:47:09;;;;;;;1.05;0.70;;;10.70;99.90;;;;;;5054858;28;20025;-79
2022/06/07 00:50:08;;;;;;;1.63;0.60;;;10.80;99.90;;;;;;5055207;28;20024;-80
2022/06/07 00:52:37;;;;;;;0.73;0.60;;;10.90;99.90;;;;;;5054536;28;20104;-83
2022/06/07 00:55:07;;;;;;;1.13;0.60;;;10.90;99.90;;;;;;5053352;28;20074;-82
2022/06/07 00:57:35;;;;;;;1.92;0.55;;;11.10;99.90;;;;;;5054524;28;20036;-81
2022/06/07 01:00:09;;;;;;;3.00;0.57;;;11.10;99.90;;;;;;5054326;28;20029;-84
2022/06/07 01:02:36;;;;;;;0.68;0.32;;;11.10;99.90;;;;;;5053138;28;20458;-83
2022/06/07 01:05:04;;;;;;;3.53;0.50;;;11.20;99.90;;;;;;5054301;28;20091;-84
2022/06/07 01:13:02;;;;;;;1.33;0.40;;;11.40;99.90;;;;;;5054367;28;20029;-81
2022/06/07 01:15:29;;;;;;;0.63;0.30;;;11.50;99.90;;;;;;5054327;28;20040;-82
2022/06/07 01:17:57;;;;;;;2.63;0.50;;;11.60;99.90;;;;;;5053991;28;20039;-83
2022/06/07 01:20:25;;;;;;;0.57;0.32;;;11.60;99.90;;;;;;5052562;28;20029;-83
2022/06/07 01:22:53;;;;;;;0.82;0.40;;;11.60;99.90;;;;;;5053875;28;20025;-77
2022/06/07 01:25:20;;;;;;;0.93;0.43;;;11.60;99.90;;;;;;5053705;28;20378;-83
2022/06/07 01:27:48;;;;;;;2.28;0.38;;;11.70;99.90;;;;;;5053905;28;20043;-79
2022/06/07 01:30:16;;;;;;;1.63;0.75;;;11.80;99.90;;;;;;5053845;28;20470;-82
2022/06/07 01:32:43;;;;;;;0.52;0.30;;;11.80;99.90;;;;;;5053448;28;20029;-83
2022/06/07 01:35:13;;;;;;;1.60;0.60;;;11.90;99.90;;;;;;5053835;28;20021;-84
2022/06/07 01:37:41;;;;;;;2.75;0.40;;;11.90;99.90;;;;;;5053555;28;20041;-83
2022/06/07 01:42:54;;;;;;;0.30;0.30;;;12.10;99.90;;;;;;5053871;28;20063;-83
2022/06/07 01:45:22;;;;;;;0.25;0.25;;;12.10;99.90;;;;;;5053463;28;20037;-82
2022/06/07 01:47:49;;;;;;;1.33;0.40;;;12.20;99.90;;;;;;5053686;28;20028;-83
2022/06/07 01:50:18;;;;;;;1.88;0.57;;;12.20;99.90;;;;;;5053398;28;20032;-83
2022/06/07 01:52:45;;;;;;;1.27;0.50;;;12.20;99.90;;;;;;5053360;28;20024;-79
2022/06/07 01:55:13;;;;;;;0.30;0.30;;;12.20;99.90;;;;;;5053356;28;20060;-84
2022/06/07 01:57:40;;;;;;;0.63;0.30;;;12.30;99.90;;;;;;5053410;28;20044;-82
2022/06/07 02:00:08;;;;;;;0.60;0.38;;;12.30;99.90;;;;;;5053286;28;20040;-82
2022/06/07 02:02:35;;;;;;;0.47;0.20;;;12.40;99.90;;;;;;5053313;28;20013;-82
2022/06/07 02:05:03;;;;;;;0.20;0.20;;;12.40;99.90;;;;;;5053296;28;20029;-81
2022/06/07 02:07:31;;;;;;;0.40;0.40;;;12.40;99.90;;;;;;5053167;28;20058;-82
2022/06/07 02:09:58;;;;;;;1.73;0.55;;;12.40;99.90;;;;;;5053170;28;20032;-81
2022/06/07 02:12:26;;;;;;;0.55;0.35;;;12.40;99.90;;;;;;5053125;28;20021;-81
2022/06/07 02:14:53;;;;;;;0.50;0.40;;;12.50;99.90;;;;;;5053279;28;20029;-82
2022/06/07 02:17:20;;;;;;;0.90;0.30;;;12.60;99.90;;;;;;5053046;28;20029;-79
2022/06/07 02:19:48;;;;;;;0.45;0.45;;;12.60;99.90;;;;;;5052925;28;20029;-82
2022/06/07 02:22:15;;;;;;;2.53;0.32;;;12.60;99.90;;;;;;5053182;28;20466;-81
2022/06/07 02:24:42;;;;;;;1.35;0.45;;;12.60;99.90;;;;;;5052947;28;20033;-73
2022/06/07 02:27:19;;;;;;;1.05;0.40;;;12.70;99.90;;;;;;5053333;28;20028;-73
2022/06/07 02:29:50;;;;;;;0.98;0.57;;;12.70;99.90;;;;;;5053254;28;20025;-73
2022/06/07 02:32:27;;;;;;;1.33;0.30;;;12.70;99.90;;;;;;5053307;28;20032;-73
2022/06/07 02:34:57;;;;;;;1.95;0.82;;;12.70;99.90;;;;;;5053552;28;20083;-74
2022/06/07 02:37:28;;;;;;;1.73;0.32;;;12.80;99.90;;;;;;5056909;28;20120;-73
2022/06/07 02:39:56;;;;;;;0.43;0.40;;;12.80;99.90;;;;;;5057013;28;20027;-74
2022/06/07 02:42:27;;;;;;;0.60;0.40;;;12.90;99.90;;;;;;5056916;28;20048;-75
2022/06/07 02:44:54;;;;;;;0.45;0.30;;;12.80;99.90;;;;;;5056881;28;20057;-74
2022/06/07 02:47:22;;;;;;;1.08;0.50;;;12.90;99.90;;;;;;5056844;28;20025;-76
2022/06/07 02:49:50;;;;;;;0.85;0.40;;;13.00;99.90;;;;;;5056793;28;20071;-73
2022/06/07 02:52:17;;;;;;;1.23;0.50;;;13.00;99.90;;;;;;5056527;28;20466;-74
2022/06/07 02:54:44;;;;;;;3.08;0.40;;;13.00;99.90;;;;;;5056879;28;20025;-73
2022/06/07 02:57:14;;;;;;;0.77;0.47;;;13.10;99.90;;;;;;5056712;28;20018;-74
2022/06/07 02:59:41;;;;;;;0.55;0.40;;;13.10;99.90;;;;;;5056771;28;20474;-73
2022/06/07 03:02:09;;;;;;;0.95;0.40;;;13.10;99.90;;;;;;5056674;28;20070;-74
2022/06/07 03:04:36;;;;;;;2.55;0.47;;;13.10;99.90;;;;;;5056541;28;20036;-73
2022/06/07 03:07:04;;;;;;;0.98;0.30;;;13.10;99.90;;;;;;5056533;28;20417;-73
2022/06/07 03:09:32;;;;;;;2.83;0.47;;;13.10;99.90;;;;;;5056551;28;20024;-75
2022/06/07 03:12:00;;;;;;;0.55;0.30;;;13.10;99.90;;;;;;5056696;28;20032;-73
2022/06/07 03:14:28;;;;;;;0.45;0.40;;;13.10;99.90;;;;;;5056342;28;20028;-72
2022/06/07 03:16:55;;;;;;;0.30;0.30;;;13.10;99.90;;;;;;5056483;28;20412;-75
2022/06/07 03:19:23;;;;;;;0.45;0.40;;;13.10;99.90;;;;;;5056361;28;20075;-72
2022/06/07 03:21:50;;;;;;;0.70;0.47;;;13.10;99.90;;;;;;5056557;28;20025;-72
2022/06/07 03:24:18;;;;;;;0.20;0.20;;;13.10;99.90;;;;;;5056184;28;20025;-73
2022/06/07 03:26:45;;;;;;;0.50;0.30;;;13.10;99.90;;;;;;5056232;28;20029;-72
2022/06/07 03:29:12;;;;;;;0.25;0.20;;;13.10;99.90;;;;;;5056059;28;20032;-73
2022/06/07 03:31:40;;;;;;;0.28;0.28;;;13.10;99.90;;;;;;5056210;28;20102;-76
2022/06/07 03:34:07;;;;;;;1.15;0.40;;;13.10;99.90;;;;;;5055945;28;20017;-73
2022/06/07 03:36:35;;;;;;;0.40;0.30;;;13.00;99.90;;;;;;5055691;28;20021;-73
2022/06/07 03:39:08;;;;;;;0.20;0.20;;;13.00;99.90;;;;;;5055987;28;20036;-73
2022/06/07 03:41:37;;;;;;;0.20;0.20;;;13.00;99.90;;;;;;5056610;28;20025;-75
2022/06/07 03:44:05;;;;;;;0.28;0.20;;;13.10;99.90;;;;;;5055965;28;20023;-74
2022/06/07 03:46:33;;;;;;;0.22;0.22;;;13.10;99.90;;;;;;5054855;28;20071;-75
2022/06/07 03:49:01;;;;;;;1.60;0.30;;;13.10;99.90;;;;;;5055725;28;20527;-72
2022/06/07 03:51:30;;;;;;;0.70;0.32;;;13.10;99.90;;;;;;5055730;28;20056;-76
2022/06/07 03:53:58;;;;;;;0.80;0.40;;;13.10;99.90;;;;;;5055556;28;20074;-74
2022/06/07 03:56:25;;;;;;;0.55;0.20;;;13.10;99.90;;;;;;5055530;28;20021;-72
2022/06/07 03:58:53;;;;;;;0.73;0.30;;;13.10;99.90;;;;;;5055751;28;20067;-73
2022/06/07 04:01:23;;;;;;;0.70;0.40;;;13.00;99.90;;;;;;5055428;28;20029;-73
2022/06/07 04:03:53;;;;;;;0.25;0.25;;;13.10;99.90;;;;;;5055465;28;20025;-72
2022/06/07 04:06:26;;;;;;;0.20;0.20;;;13.00;99.90;;;;;;5055343;28;20029;-73
2022/06/07 04:08:54;;;;;;;0.20;0.20;;;13.00;99.90;;;;;;5055558;28;20175;-73
2022/06/07 04:11:24;;;;;;;0.22;0.22;;;13.00;99.90;;;;;;5055418;28;20033;-73
2022/06/07 04:13:53;;;;;;;0.35;0.20;;;13.00;99.90;;;;;;5055093;28;20497;-76
2022/06/07 04:16:24;;;;;;;0.90;0.30;;;13.10;99.90;;;;;;5055236;28;20392;-74
2022/06/07 04:18:53;;;;;;;0.20;0.20;;;13.00;99.90;;;;;;5055537;28;20091;-73
2022/06/07 04:21:22;;;;;;;0.20;0.20;;;13.00;99.90;;;;;;5055042;28;20021;-73
2022/06/07 04:23:50;;;;;;;1.23;0.40;;;12.90;99.90;;;;;;5055183;28;20444;-76
2022/06/07 04:26:26;;;;;;;0.32;0.20;;;12.90;99.90;;;;;;5055099;28;20082;-72
2022/06/07 04:28:54;;;;;;;0.38;0.17;;;12.90;99.90;;;;;;5054954;28;20025;-73
2022/06/07 04:31:23;;;;;;;2.20;0.20;;;12.80;99.90;;;;;;5054849;28;20029;-73
2022/06/07 04:33:51;;;;;;;0.25;0.20;;;12.80;99.90;;;;;;5054663;28;20044;-72
2022/06/07 04:36:22;;;;;;;0.65;0.50;;;12.80;99.90;;;;;;5055051;28;20021;-73
2022/06/07 04:38:51;;;;;;;0.17;0.17;;;12.80;99.90;;;;;;5055050;28;20041;-73
2022/06/07 04:41:20;;;;;;;0.30;0.30;;;12.80;99.90;;;;;;5054794;28;20068;-73
2022/06/07 04:43:49;;;;;;;0.20;0.20;;;12.80;99.90;;;;;;5054720;28;20044;-78
2022/06/07 04:46:17;;;;;;;2.38;0.22;;;12.80;99.90;;;;;;5054460;28;20043;-75
2022/06/07 04:48:47;;;;;;;0.80;0.30;;;12.70;99.90;;;;;;5054727;28;20024;-73
2022/06/07 04:51:27;;;;;;;3.50;0.30;;;12.70;99.90;;;;;;5054639;28;20029;-73
2022/06/07 04:53:56;;;;;;;0.98;0.30;;;12.70;99.90;;;;;;5054313;28;20035;-74
2022/06/07 04:56:26;;;;;;;0.30;0.30;;;12.70;99.90;;;;;;5054384;28;20025;-73
2022/06/07 04:58:54;;;;;;;0.45;0.30;;;12.60;99.90;;;;;;5054351;28;20036;-73
2022/06/07 05:01:27;;;;;;;1.40;0.35;;;12.60;99.90;;;;;;5054409;28;20028;-73
2022/06/07 05:03:54;;;;;;;1.50;0.30;;;12.60;99.90;;;;;;5054542;28;20017;-79
2022/06/07 05:06:29;;;;;;;0.32;0.20;;;12.60;99.90;;;;;;5054084;28;20037;-82
2022/06/07 05:09:00;;;;;;;0.20;0.20;;;12.60;99.90;;;;;;5054123;28;20501;-76
2022/06/07 05:11:28;;;;;;;0.20;0.20;;;12.60;99.90;;;;;;5054929;28;20021;-76
2022/06/07 05:14:02;;;;;;;0.43;0.25;;;12.60;99.90;;;;;;5054100;28;20021;-82
2022/06/07 05:16:31;;;;;;;0.65;0.20;;;12.60;99.90;;;;;;5052803;28;20035;-81
2022/06/07 05:18:58;;;;;;;0.20;0.20;;;12.50;99.90;;;;;;5053986;28;20033;-82
2022/06/07 05:21:27;;;;;;;0.30;0.30;;;12.50;99.90;;;;;;5052774;28;20497;-83
2022/06/07 05:23:54;;;;;;;0.43;0.40;;;12.50;99.90;;;;;;5054097;28;20032;-80
2022/06/07 05:26:33;;;;;;;1.10;0.30;;;12.50;99.90;;;;;;5053965;28;20082;-82
2022/06/07 05:29:01;;;;;;;0.82;0.47;;;12.50;99.90;;;;;;5053794;28;20025;-74
2022/06/07 05:31:29;;;;;;;0.43;0.30;;;12.50;99.90;;;;;;5053813;28;20025;-78
2022/06/07 05:33:56;;;;;;;0.73;0.30;;;12.50;99.90;;;;;;5052363;28;20025;-82
2022/06/07 05:36:24;;;;;;;0.30;0.30;;;12.50;99.90;;;;;;5053762;28;20021;-82
2022/06/07 05:38:52;;;;;;;1.40;0.85;;;12.40;99.90;;;;;;5054458;28;20071;-81
2022/06/07 05:41:25;;;;;;;2.65;0.60;;;12.40;99.90;;;;;;5053582;28;20032;-73
2022/06/07 05:43:52;;;;;;;2.55;2.35;;;12.40;99.90;;;;;;5053662;28;20104;-81
2022/06/07 05:46:20;;;;;;;2.47;1.70;;;12.40;99.90;;;;;;5053589;28;20032;-81
2022/06/07 05:48:47;;;;;;;1.00;0.63;;;12.30;99.90;;;;;;5053893;28;20021;-75
2022/06/07 05:51:15;;;;;;;2.40;0.30;;;12.40;99.90;;;;;;5052316;28;20386;-78
2022/06/07 05:53:42;;;;;;;0.43;0.40;;;12.30;99.90;;;;;;5053540;28;20028;-76
2022/06/07 05:56:15;;;;;;;0.68;0.45;;;12.30;99.90;;;;;;5053357;28;20067;-81
2022/06/07 05:58:42;;;;;;;0.40;0.30;;;12.20;99.90;;;;;;5053631;28;20028;-74
2022/06/07 06:01:09;;;;;;;1.00;0.52;;;12.10;99.90;;;;;;5053382;28;20108;-72
2022/06/07 06:03:40;;;;;;;0.57;0.50;;;12.10;99.90;;;;;;5053578;28;20041;-72
2022/06/07 06:06:12;;;;;;;0.28;0.28;;;12.00;99.90;;;;;;5053504;28;20481;-73
2022/06/07 06:11:28;;;;;;;0.47;0.30;;;12.00;99.90;;;;;;5053271;28;20075;-72
2022/06/07 06:13:55;;;;;;;2.88;0.40;;;11.90;99.90;;;;;;5053293;28;20470;-72
2022/06/07 06:16:23;;;;;;;0.35;0.30;;;11.90;99.90;;;;;;5053479;28;20355;-73
2022/06/07 06:18:53;;;;;;;0.57;0.30;;;11.80;99.90;;;;;;5053575;28;20025;-73
2022/06/07 06:21:23;;;;;;;0.45;0.40;;;11.70;99.90;;;;;;5053422;28;20033;-80
2022/06/07 06:23:51;;;;;;;1.65;1.10;;;11.70;99.90;;;;;;5053502;28;20021;-73
2022/06/07 06:26:20;;;;;;;3.63;0.30;;;11.60;99.90;;;;;;5053106;28;20036;-82
2022/06/07 06:28:48;;;;;;;0.52;0.30;;;11.60;99.90;;;;;;5053578;28;20048;-84
2022/06/07 06:31:17;;;;;;;0.80;0.43;;;11.50;99.90;;;;;;5053398;28;20039;-79
2022/06/07 06:33:50;;;;;;;0.52;0.40;;;11.50;99.90;;;;;;5053062;28;20033;-82
2022/06/07 06:36:21;;;;;;;0.30;0.30;;;11.40;99.90;;;;;;5053382;28;20028;-83
2022/06/07 06:38:49;;;;;;;1.00;0.40;;;11.30;99.90;;;;;;5053266;28;20041;-79
2022/06/07 06:41:23;;;;;;;0.35;0.30;;;11.30;99.90;;;;;;5053090;28;20098;-73
2022/06/07 06:43:52;;;;;;;0.52;0.30;;;11.30;99.90;;;;;;5053156;28;20032;-73
2022/06/07 06:46:26;;;;;;;0.45;0.30;;;11.20;99.90;;;;;;5052826;28;20041;-74
2022/06/07 06:48:54;;;;;;;1.00;0.45;;;11.20;99.90;;;;;;5053509;28;20009;-77
2022/06/07 06:51:24;;;;;;;1.10;0.38;;;11.10;99.90;;;;;;5052874;28;20501;-74
2022/06/07 06:53:55;;;;;;;0.40;0.35;;;11.10;99.90;;;;;;5052964;28;20385;-83
2022/06/07 06:56:23;;;;;;;0.93;0.40;;;11.10;99.90;;;;;;5053135;28;20509;-76
2022/06/07 06:58:52;;;;;;;1.83;0.70;;;11.00;99.90;;;;;;5052788;28;20036;-75
2022/06/07 07:01:31;;;;;;;0.80;0.45;;;11.00;99.90;;;;;;5052829;28;20057;-75
2022/06/07 07:04:07;;;;;;;1.25;0.55;;;10.90;99.90;;;;;;5053029;28;20025;-77
2022/06/07 07:06:35;;;;;;;0.47;0.40;;;10.90;99.90;;;;;;5052991;28;20029;-79
2022/06/07 07:09:03;;;;;;;1.38;0.60;;;10.80;99.90;;;;;;5052662;28;20017;-83
2022/06/07 07:11:38;;;;;;;1.20;0.77;;;10.80;99.90;;;;;;5052743;28;20041;-79
2022/06/07 07:14:07;;;;;;;0.45;0.40;;;10.80;99.90;;;;;;5052697;28;20053;-80
2022/06/07 07:16:38;;;;;;;1.00;0.70;;;10.70;99.90;;;;;;5052900;28;20056;-81
2022/06/07 07:19:06;;;;;;;1.35;0.70;;;10.60;99.90;;;;;;5052878;28;20461;-82
2022/06/07 07:21:36;;;;;;;1.90;1.05;;;10.60;99.90;;;;;;5054180;28;20029;-83
2022/06/07 07:24:06;;;;;;;1.15;0.60;;;10.50;99.90;;;;;;5056453;28;20051;-82
2022/06/07 07:26:37;;;;;;;1.77;1.00;;;10.50;99.90;;;;;;5056242;28;20496;-81
2022/06/07 07:29:05;;;;;;;1.45;1.20;;;10.40;99.90;;;;;;5056423;28;20028;-83
2022/06/07 07:31:36;;;;;;;6.18;4.47;;;10.40;99.90;;;;;;5056158;28;20539;-83
2022/06/07 07:34:07;;;;;;;8.85;3.35;;;10.40;99.90;;;;;;5055867;28;20032;-83
2022/06/07 07:36:35;;;;;;;10.23;7.35;;;10.40;99.90;;;;;;5056050;28;20017;-83
2022/06/07 07:39:04;;;;;;;4.50;2.30;;;10.40;99.90;;;;;;5055946;28;20123;-82
2022/06/07 07:41:34;;;;;;;4.72;2.03;;;10.40;99.90;;;;;;5055877;28;20029;-84
2022/06/07 07:44:04;;;;;;;3.33;2.92;;;10.50;99.90;;;;;;5055763;28;20028;-80
2022/06/07 07:46:43;;;;;;;3.92;1.35;;;10.50;99.90;;;;;;5055984;28;20029;-82
2022/06/07 07:49:13;;;;;;;6.85;4.20;;;10.50;99.90;;;;;;5055769;28;20021;-83
2022/06/07 07:51:44;;;;;;;5.10;2.60;;;10.50;99.90;;;;;;5055971;28;20035;-83
2022/06/07 07:54:13;;;;;;;2.60;1.42;;;10.50;99.90;;;;;;5055663;28;20024;-82
2022/06/07 07:56:44;;;;;;;2.33;1.40;;;10.50;99.90;;;;;;5055741;28;20470;-83
2022/06/07 07:59:14;;;;;;;7.80;4.03;;;10.50;99.90;;;;;;5055923;28;20024;-83
2022/06/07 08:01:46;;;;;;;3.13;1.80;;;10.50;99.90;;;;;;5055457;28;20032;-83
2022/06/07 08:04:14;;;;;;;2.08;1.23;;;10.50;99.90;;;;;;5055530;28;20028;-82
2022/06/07 08:06:47;;;;;;;0.75;0.65;;;10.50;99.90;;;;;;5056143;28;20456;-82
2022/06/07 08:09:15;;;;;;;1.83;0.70;;;10.50;99.90;;;;;;5055391;28;20040;-81
2022/06/07 08:11:43;;;;;;;3.17;0.82;;;10.50;99.90;;;;;;5055374;28;20023;-74
2022/06/07 08:14:18;;;;;;;1.00;0.77;;;10.50;99.90;;;;;;5055103;28;20021;-82
2022/06/07 08:16:47;;;;;;;2.35;0.77;;;10.50;99.90;;;;;;5055297;28;20484;-80
2022/06/07 08:19:14;;;;;;;0.85;0.80;;;10.50;99.90;;;;;;5055235;28;20376;-82
2022/06/07 08:21:42;;;;;;;1.00;0.57;;;10.50;99.90;;;;;;5055241;28;20118;-83
2022/06/07 08:24:10;;;;;;;1.50;0.65;;;10.60;99.90;;;;;;5055082;28;20117;-74
2022/06/07 08:26:37;;;;;;;0.85;0.70;;;10.60;99.90;;;;;;5055110;28;20446;-80
2022/06/07 08:29:05;;;;;;;1.75;0.70;;;10.50;99.90;;;;;;5054791;28;20077;-81
2022/06/07 08:31:36;;;;;;;0.38;0.38;;;10.50;99.90;;;;;;5053548;28;20031;-83
2022/06/07 08:39:36;;;;;;;2.40;0.63;;;10.30;99.90;;;;;;5055182;28;20051;-79
2022/06/07 08:42:18;;;;;;;5.72;2.95;;;10.20;99.90;;;;;;5054650;28;20016;-81
2022/06/07 08:45:09;;;;;;;2.53;0.73;;;10.20;99.90;;;;;;5055067;28;20025;-83
2022/06/07 08:47:53;;;;;;;2.97;1.98;;;10.20;99.90;;;;;;5054565;28;20122;-82
2022/06/07 08:50:32;;;;;;;0.77;0.65;;;10.10;99.90;;;;;;5054674;28;20021;-80
2022/06/07 08:53:28;;;;;;;4.57;0.70;;;10.10;99.90;;;;;;5054579;28;20127;-83
2022/06/07 08:56:00;;;;;;;0.43;0.40;;;10.10;99.90;;;;;;5048906;28;20066;-83
2022/06/07 08:58:30;;;;;;;0.75;0.57;;;10.10;99.90;;;;;;5054517;28;20059;-82
2022/06/07 09:01:12;;;;;;;1.23;0.90;;;10.00;99.90;;;;;;5054218;28;20057;-82
2022/06/07 09:03:59;;;;;;;1.45;0.60;;;10.00;99.90;;;;;;5054359;28;20480;-80
2022/06/07 09:06:32;;;;;;;0.47;0.47;;;9.90;99.90;;;;;;5054231;28;20478;-82
2022/06/07 09:09:00;;;;;;;0.40;0.40;;;9.90;99.90;;;;;;5054098;28;20078;-73
2022/06/07 09:14:25;;;;;;;0.90;0.40;;;9.80;99.90;;;;;;5052398;28;20023;-75
2022/06/07 09:16:56;;;;;;;1.20;0.47;;;9.70;99.90;;;;;;5055404;28;20032;-83
2022/06/07 09:19:26;;;;;;;0.65;0.60;;;9.70;99.90;;;;;;5052992;28;20448;-82
2022/06/07 09:22:01;;;;;;;6.55;0.93;;;9.60;99.90;;;;;;5040747;28;20020;-78
2022/06/07 09:24:40;;;;;;;0.40;0.40;;;9.60;99.90;;;;;;5049097;28;20021;-75
2022/06/07 09:27:20;;;;;;;0.77;0.45;;;9.60;99.90;;;;;;5049018;28;20527;-82
2022/06/07 09:29:55;;;;;;;0.38;0.30;;;9.60;99.90;;;;;;5033404;28;20033;-77
2022/06/07 09:32:28;;;;;;;0.60;0.50;;;9.50;99.90;;;;;;5050468;28;20067;-81
2022/06/07 09:34:58;;;;;;;0.52;0.40;;;9.50;99.90;;;;;;5053436;28;20041;-79
2022/06/07 09:37:41;;;;;;;3.17;0.50;;;9.50;99.90;;;;;;5052425;28;20049;-78
2022/06/07 09:40:32;;;;;;;0.68;0.40;;;9.40;99.90;;;;;;5052142;28;20082;-83
2022/06/07 09:43:17;;;;;;;0.40;0.40;;;9.40;99.90;;;;;;5050178;28;20439;-78
2022/06/07 09:46:07;;;;;;;0.40;0.40;;;9.40;99.90;;;;;;5048509;28;20367;-83
2022/06/07 09:48:45;;;;;;;0.73;0.30;;;9.40;99.90;;;;;;5051561;28;20025;-81
2022/06/07 09:51:19;;;;;;;0.30;0.30;;;9.30;99.90;;;;;;5050931;28;20017;-83
2022/06/07 09:54:24;;;;;;;0.43;0.40;;;9.30;99.90;;;;;;5049529;28;20067;-82
2022/06/07 09:57:32;;;;;;;0.75;0.30;;;9.30;99.90;;;;;;5027250;28;20026;-80
2022/06/07 10:00:18;;;;;;;0.35;0.30;;;9.20;99.90;;;;;;4989478;28;20045;-76
2022/06/07 10:03:13;;;;;;;0.30;0.22;;;9.20;99.90;;;;;;5049189;28;20040;-77
2022/06/07 10:05:43;;;;;;;0.55;0.40;;;9.10;99.90;;;;;;5048880;28;20029;-76
2022/06/07 10:08:13;;;;;;;0.80;0.40;;;9.10;99.90;;;;;;5049742;28;20025;-80
2022/06/07 10:11:01;;;;;;;0.20;0.20;;;9.10;99.90;;;;;;5048994;28;20047;-81
2022/06/07 10:13:51;;;;;;;3.20;0.40;;;9.00;99.90;;;;;;5048320;28;20025;-78
2022/06/07 10:16:24;;;;;;;0.93;0.68;;;9.00;99.90;;;;;;5047577;28;20493;-83
2022/06/07 10:19:26;;;;;;;0.57;0.40;;;9.00;99.90;;;;;;5050230;28;20033;-79
2022/06/07 10:22:18;;;;;;;1.27;0.40;;;9.00;99.90;;;;;;5050963;28;20078;-72
2022/06/07 10:25:03;;;;;;;0.93;0.40;;;8.90;99.90;;;;;;5049196;28;20074;-77
2022/06/07 10:27:39;;;;;;;0.52;0.52;;;8.90;99.90;;;;;;5049473;28;20021;-73
2022/06/07 10:30:15;;;;;;;0.85;0.55;;;8.90;99.90;;;;;;5049616;28;20517;-79
2022/06/07 10:33:06;;;;;;;0.77;0.70;;;8.80;99.90;;;;;;5042098;28;20021;-74
2022/06/07 10:35:39;;;;;;;0.55;0.40;;;8.80;99.90;;;;;;5050498;28;20025;-72
2022/06/07 10:38:43;;;;;;;0.43;0.30;;;8.80;99.90;;;;;;5051420;28;20099;-74
2022/06/07 10:41:43;;;;;;;0.57;0.40;;;8.80;99.90;;;;;;5048759;28;20025;-76
2022/06/07 10:44:35;;;;;;;0.30;0.30;;;8.80;99.90;;;;;;5027089;28;20075;-75
2022/06/07 10:47:12;;;;;;;0.70;0.35;;;8.80;99.90;;;;;;5050265;28;20041;-79
2022/06/07 10:50:01;;;;;;;0.30;0.30;;;8.80;99.90;;;;;;5050940;28;20078;-76
2022/06/07 10:52:35;;;;;;;0.40;0.40;;;8.70;99.90;;;;;;5050519;28;20024;-73
2022/06/07 10:55:19;;;;;;;0.55;0.43;;;8.70;99.90;;;;;;5050072;28;20070;-81
2022/06/07 10:57:55;;;;;;;0.43;0.40;;;8.70;99.90;;;;;;5062219;28;20371;-80
2022/06/07 11:00:37;;;;;;;0.57;0.43;;;8.60;99.90;;;;;;5054561;28;20104;-78
2022/06/07 11:03:41;;;;;;;0.63;0.50;;;8.60;99.90;;;;;;5054066;28;20100;-78
2022/06/07 11:09:25;;;;;;;0.70;0.40;;;8.60;99.90;;;;;;5051976;28;20044;-73
2022/06/07 11:12:00;;;;;;;1.25;0.63;;;8.60;99.90;;;;;;5048543;28;20036;-75
2022/06/07 11:15:09;;;;;;;4.43;0.57;;;8.50;99.90;;;;;;5052234;28;20484;-79
2022/06/07 11:17:48;;;;;;;0.40;0.38;;;8.50;99.90;;;;;;5054406;28;20386;-82
2022/06/07 11:20:27;;;;;;;0.90;0.60;;;8.50;99.90;;;;;;5052725;28;20013;-79
2022/06/07 11:23:17;;;;;;;0.57;0.52;;;8.50;99.90;;;;;;5053842;28;20056;-75
2022/06/07 11:26:06;;;;;;;0.70;0.70;;;8.50;99.90;;;;;;5054076;28;20036;-83
2022/06/07 11:28:41;;;;;;;0.85;0.40;;;8.40;99.90;;;;;;5054690;28;20041;-82
2022/06/07 11:31:36;;;;;;;0.93;0.70;;;8.40;99.90;;;;;;5051203;28;20500;-79
2022/06/07 11:34:10;;;;;;;0.40;0.40;;;8.40;99.90;;;;;;5050534;28;20017;-80
2022/06/07 11:36:41;;;;;;;0.70;0.60;;;8.40;99.90;;;;;;5053190;28;20374;-82
2022/06/07 11:39:27;;;;;;;2.05;1.00;;;8.40;99.90;;;;;;5053743;28;20044;-77
2022/06/07 11:42:21;;;;;;;1.13;0.70;;;8.40;99.90;;;;;;5054445;28;20378;-72
2022/06/07 11:45:22;;;;;;;0.73;0.60;;;8.30;99.90;;;;;;5052687;28;20017;-82
2022/06/07 11:47:49;;;;;;;1.15;0.43;;;8.30;99.90;;;;;;5050636;28;20029;-75
2022/06/07 11:50:41;;;;;;;0.80;0.50;;;8.30;99.90;;;;;;5052883;28;20032;-83
2022/06/07 11:53:38;;;;;;;0.50;0.50;;;8.30;99.90;;;;;;5051212;28;20013;-73
2022/06/07 11:56:31;;;;;;;;;;;8.20;99.90;;;;;;5052236;28;20054;-75
2022/06/07 11:59:23;;;;;;;0.80;0.60;;;8.20;99.90;;;;;;5051882;28;19905;-80
2022/06/07 12:02:02;;;;;;;0.60;0.52;;;8.20;99.90;;;;;;5027922;28;20495;-76
2022/06/07 12:04:53;;;;;;;2.75;0.60;;;8.20;99.90;;;;;;5035071;28;20405;-81
2022/06/07 12:07:46;;;;;;;0.98;0.60;;;8.20;99.90;;;;;;5034670;28;20091;-83
2022/06/07 12:10:53;;;;;;;0.80;0.57;;;8.10;99.90;;;;;;5035258;28;20459;-82
2022/06/07 12:13:49;;;;;;;;;;;8.10;99.90;;;;;;5045283;28;20389;-76
2022/06/07 12:16:32;;;;;;;0.55;0.55;;;8.10;99.90;;;;;;5049139;28;19909;-73
2022/06/07 12:19:02;;;;;;;0.60;0.50;;;8.10;99.90;;;;;;5053366;28;20029;-82
2022/06/07 12:21:34;;;;;;;0.63;0.52;;;8.00;99.90;;;;;;5049623;28;20028;-74
2022/06/07 12:24:12;;;;;;;1.38;0.70;;;7.90;99.90;;;;;;5052673;28;20028;-82
2022/06/07 12:26:39;;;;;;;1.10;0.88;;;7.90;99.90;;;;;;5052601;28;20024;-73
2022/06/07 12:29:23;;;;;;;1.73;0.93;;;7.90;99.90;;;;;;5053381;28;20087;-73
2022/06/07 12:31:56;;;;;;;0.90;0.60;;;7.80;99.90;;;;;;5053038;28;20084;-74
2022/06/07 12:34:28;;;;;;;0.50;0.40;;;7.80;99.90;;;;;;5052363;28;20025;-75
2022/06/07 12:36:59;;;;;;;1.15;0.73;;;7.80;99.90;;;;;;5047227;28;20041;-75
2022/06/07 12:39:28;;;;;;;2.17;1.23;;;7.80;99.90;;;;;;5050954;28;20367;-73
2022/06/07 12:42:07;;;;;;;1.05;0.95;;;7.70;99.90;;;;;;5051822;28;20013;-74
2022/06/07 12:44:42;;;;;;;0.50;0.50;;;7.70;99.90;;;;;;5050514;28;20017;-75
2022/06/07 12:47:24;;;;;;;0.75;0.57;;;7.70;99.90;;;;;;5050986;28;20028;-81
2022/06/07 12:49:52;;;;;;;0.70;0.50;;;7.70;99.90;;;;;;5050612;28;20029;-73
2022/06/07 12:52:22;;;;;;;0.55;0.50;;;7.70;99.90;;;;;;5053291;28;20028;-80
2022/06/07 12:54:51;;;;;;;1.05;0.65;;;7.70;99.90;;;;;;5052970;28;20032;-78
2022/06/07 12:57:35;;;;;;;0.57;0.50;;;7.70;99.90;;;;;;5053892;28;20403;-73
2022/06/07 13:00:13;;;;;;;1.25;0.50;;;7.70;99.90;;;;;;5052289;28;20039;-73
2022/06/07 13:02:57;;;;;;;0.90;0.50;;;7.70;99.90;;;;;;5052039;28;20025;-73
2022/06/07 13:05:32;;;;;;;1.13;0.57;;;7.80;99.90;;;;;;5053388;28;20025;-75
2022/06/07 13:08:01;;;;;;;1.15;0.68;;;7.80;99.90;;;;;;5051631;28;20028;-76
2022/06/07 13:10:32;;;;;;;1.30;0.70;;;7.70;99.90;;;;;;5053308;28;20021;-74
2022/06/07 13:13:09;;;;;;;0.93;0.75;;;7.80;99.90;;;;;;5051774;28;20389;-77
2022/06/07 13:16:17;;;;;;;0.65;0.60;;;7.70;99.90;;;;;;5050803;28;20023;-76
2022/06/07 13:19:17;;;;;;;0.68;0.60;;;7.70;99.90;;;;;;5052651;28;20029;-81
2022/06/07 13:22:30;;;;;;;1.08;0.70;;;7.70;99.90;;;;;;5054152;28;20389;-82
2022/06/07 13:25:20;;;;;;;0.80;0.63;;;7.70;99.90;;;;;;5012263;28;20026;-82
2022/06/07 13:27:53;;;;;;;0.73;0.65;;;7.60;99.90;;;;;;5053028;28;20064;-80
2022/06/07 13:30:25;;;;;;;1.70;0.70;;;7.60;99.90;;;;;;5054236;28;20120;-80
2022/06/07 13:33:07;;;;;;;1.15;0.65;;;7.60;99.90;;;;;;5053909;28;20032;-71
2022/06/07 13:35:46;;;;;;;0.98;0.63;;;7.50;99.90;;;;;;5053626;28;20124;-73
2022/06/07 13:38:32;;;;;;;1.20;0.70;;;7.60;99.90;;;;;;5053703;28;20048;-80
2022/06/07 13:41:19;;;;;;;1.03;0.63;;;7.60;99.90;;;;;;5053823;28;20552;-81
2022/06/07 13:43:57;;;;;;;0.52;0.50;;;7.60;99.90;;;;;;5053754;28;20021;-74
2022/06/07 13:46:38;;;;;;;3.95;0.70;;;7.50;99.90;;;;;;5053571;28;20466;-77
2022/06/07 13:55:12;;;;;;;0.68;0.50;;;7.40;99.90;;;;;;5052320;28;20082;-81